sensor_id;sensor_type;location;lat;lon;timestamp;P1;durP1;ratioP1;P2;durP2;ratioP2
22644;SDS011;11489;50.834;6.752;2023-08-12T00:02:13;11.63;;;7.97;;
22644;SDS011;11489;50.834;6.752;2023-08-12T00:04:39;11.25;;;8.35;;
22644;SDS011;11489;50.834;6.752;2023-08-12T00:07:04;12.75;;;9.05;;
22644;SDS011;11489;50.834;6.752;2023-08-12T00:09:30;12.00;;;8.65;;
22644;SDS011;11489;50.834;6.752;2023-08-12T00:11:55;10.98;;;8.45;;
22644;SDS011;11489;50.834;6.752;2023-08-12T00:14:21;12.35;;;8.63;;
22644;SDS011;11489;50.834;6.752;2023-08-12T00:16:47;10.07;;;8.35;;
22644;SDS011;11489;50.834;6.752;2023-08-12T00:19:12;12.07;;;9.05;;
22644;SDS011;11489;50.834;6.752;2023-08-12T00:21:38;12.20;;;9.35;;
22644;SDS011;11489;50.834;6.752;2023-08-12T00:24:04;13.65;;;8.98;;
22644;SDS011;11489;50.834;6.752;2023-08-12T00:26:30;11.07;;;8.63;;
22644;SDS011;11489;50.834;6.752;2023-08-12T00:28:56;12.55;;;9.15;;
22644;SDS011;11489;50.834;6.752;2023-08-12T00:31:21;13.52;;;9.25;;
22644;SDS011;11489;50.834;6.752;2023-08-12T00:33:47;13.43;;;9.63;;
22644;SDS011;11489;50.834;6.752;2023-08-12T00:36:12;11.52;;;8.95;;
22644;SDS011;11489;50.834;6.752;2023-08-12T00:38:38;13.30;;;9.32;;
22644;SDS011;11489;50.834;6.752;2023-08-12T00:41:04;12.57;;;9.73;;
22644;SDS011;11489;50.834;6.752;2023-08-12T00:43:29;12.65;;;9.18;;
22644;SDS011;11489;50.834;6.752;2023-08-12T00:45:55;14.10;;;10.73;;
22644;SDS011;11489;50.834;6.752;2023-08-12T00:48:21;14.15;;;9.82;;
22644;SDS011;11489;50.834;6.752;2023-08-12T00:50:48;14.02;;;10.50;;
22644;SDS011;11489;50.834;6.752;2023-08-12T00:53:14;12.63;;;9.60;;
22644;SDS011;11489;50.834;6.752;2023-08-12T00:55:41;13.43;;;9.95;;
22644;SDS011;11489;50.834;6.752;2023-08-12T00:58:07;15.25;;;10.35;;
22644;SDS011;11489;50.834;6.752;2023-08-12T01:00:33;13.20;;;9.60;;
22644;SDS011;11489;50.834;6.752;2023-08-12T01:02:59;13.07;;;9.85;;
22644;SDS011;11489;50.834;6.752;2023-08-12T01:05:26;11.73;;;9.38;;
22644;SDS011;11489;50.834;6.752;2023-08-12T01:07:51;13.23;;;10.30;;
22644;SDS011;11489;50.834;6.752;2023-08-12T01:10:18;14.95;;;10.13;;
22644;SDS011;11489;50.834;6.752;2023-08-12T01:13:08;14.38;;;9.93;;
22644;SDS011;11489;50.834;6.752;2023-08-12T01:15:43;14.32;;;10.57;;
22644;SDS011;11489;50.834;6.752;2023-08-12T01:18:09;14.45;;;10.45;;
22644;SDS011;11489;50.834;6.752;2023-08-12T01:20:36;15.38;;;10.73;;
22644;SDS011;11489;50.834;6.752;2023-08-12T01:25:37;15.18;;;11.23;;
22644;SDS011;11489;50.834;6.752;2023-08-12T01:28:02;16.58;;;11.43;;
22644;SDS011;11489;50.834;6.752;2023-08-12T01:30:28;17.20;;;11.65;;
22644;SDS011;11489;50.834;6.752;2023-08-12T01:37:52;14.55;;;10.27;;
22644;SDS011;11489;50.834;6.752;2023-08-12T01:40:19;15.20;;;10.32;;
22644;SDS011;11489;50.834;6.752;2023-08-12T01:42:45;14.23;;;10.63;;
22644;SDS011;11489;50.834;6.752;2023-08-12T01:45:11;16.67;;;10.48;;
22644;SDS011;11489;50.834;6.752;2023-08-12T01:47:37;14.75;;;11.15;;
22644;SDS011;11489;50.834;6.752;2023-08-12T01:50:03;12.77;;;10.15;;
22644;SDS011;11489;50.834;6.752;2023-08-12T01:52:29;15.00;;;10.48;;
22644;SDS011;11489;50.834;6.752;2023-08-12T01:54:55;13.40;;;10.48;;
22644;SDS011;11489;50.834;6.752;2023-08-12T01:57:21;14.23;;;10.50;;
22644;SDS011;11489;50.834;6.752;2023-08-12T01:59:46;12.82;;;10.13;;
22644;SDS011;11489;50.834;6.752;2023-08-12T02:02:12;13.30;;;10.18;;
22644;SDS011;11489;50.834;6.752;2023-08-12T02:04:39;14.40;;;10.55;;
22644;SDS011;11489;50.834;6.752;2023-08-12T02:07:05;13.90;;;10.57;;
22644;SDS011;11489;50.834;6.752;2023-08-12T02:09:31;11.70;;;9.73;;
22644;SDS011;11489;50.834;6.752;2023-08-12T02:11:56;14.27;;;9.55;;
22644;SDS011;11489;50.834;6.752;2023-08-12T02:14:23;14.07;;;10.05;;
22644;SDS011;11489;50.834;6.752;2023-08-12T02:16:49;12.32;;;9.38;;
22644;SDS011;11489;50.834;6.752;2023-08-12T02:19:15;11.90;;;9.60;;
22644;SDS011;11489;50.834;6.752;2023-08-12T02:21:41;15.43;;;9.88;;
22644;SDS011;11489;50.834;6.752;2023-08-12T02:24:07;14.30;;;9.23;;
22644;SDS011;11489;50.834;6.752;2023-08-12T02:26:33;11.23;;;8.40;;
22644;SDS011;11489;50.834;6.752;2023-08-12T02:28:59;11.73;;;8.90;;
22644;SDS011;11489;50.834;6.752;2023-08-12T02:31:25;11.73;;;8.52;;
22644;SDS011;11489;50.834;6.752;2023-08-12T02:33:50;10.18;;;8.68;;
22644;SDS011;11489;50.834;6.752;2023-08-12T02:36:16;12.27;;;8.45;;
22644;SDS011;11489;50.834;6.752;2023-08-12T02:38:42;11.35;;;8.27;;
22644;SDS011;11489;50.834;6.752;2023-08-12T02:41:07;10.35;;;7.97;;
22644;SDS011;11489;50.834;6.752;2023-08-12T02:43:33;11.45;;;8.40;;
22644;SDS011;11489;50.834;6.752;2023-08-12T02:45:59;12.43;;;8.10;;
22644;SDS011;11489;50.834;6.752;2023-08-12T02:48:24;11.05;;;8.20;;
22644;SDS011;11489;50.834;6.752;2023-08-12T02:50:50;9.32;;;7.82;;
22644;SDS011;11489;50.834;6.752;2023-08-12T02:53:16;11.73;;;7.95;;
22644;SDS011;11489;50.834;6.752;2023-08-12T02:55:42;11.77;;;8.15;;
22644;SDS011;11489;50.834;6.752;2023-08-12T02:58:07;11.35;;;7.90;;
22644;SDS011;11489;50.834;6.752;2023-08-12T03:00:33;11.05;;;7.97;;
22644;SDS011;11489;50.834;6.752;2023-08-12T03:02:58;10.13;;;8.07;;
22644;SDS011;11489;50.834;6.752;2023-08-12T03:05:24;9.23;;;7.70;;
22644;SDS011;11489;50.834;6.752;2023-08-12T03:07:50;10.60;;;8.00;;
22644;SDS011;11489;50.834;6.752;2023-08-12T03:10:17;11.35;;;8.15;;
22644;SDS011;11489;50.834;6.752;2023-08-12T03:12:43;9.30;;;7.57;;
22644;SDS011;11489;50.834;6.752;2023-08-12T03:15:09;10.07;;;7.78;;
22644;SDS011;11489;50.834;6.752;2023-08-12T03:17:35;8.57;;;7.57;;
22644;SDS011;11489;50.834;6.752;2023-08-12T03:20:04;11.45;;;8.18;;
22644;SDS011;11489;50.834;6.752;2023-08-12T03:22:31;10.05;;;7.88;;
22644;SDS011;11489;50.834;6.752;2023-08-12T03:24:56;10.65;;;8.60;;
22644;SDS011;11489;50.834;6.752;2023-08-12T03:27:22;11.23;;;8.60;;
22644;SDS011;11489;50.834;6.752;2023-08-12T03:29:48;10.20;;;8.52;;
22644;SDS011;11489;50.834;6.752;2023-08-12T03:32:13;10.27;;;8.18;;
22644;SDS011;11489;50.834;6.752;2023-08-12T03:34:39;12.52;;;8.98;;
22644;SDS011;11489;50.834;6.752;2023-08-12T03:37:04;12.88;;;9.27;;
22644;SDS011;11489;50.834;6.752;2023-08-12T03:39:30;13.32;;;10.02;;
22644;SDS011;11489;50.834;6.752;2023-08-12T03:41:56;13.48;;;9.88;;
22644;SDS011;11489;50.834;6.752;2023-08-12T03:44:22;11.95;;;10.32;;
22644;SDS011;11489;50.834;6.752;2023-08-12T03:46:47;15.60;;;10.82;;
22644;SDS011;11489;50.834;6.752;2023-08-12T03:49:13;15.35;;;10.60;;
22644;SDS011;11489;50.834;6.752;2023-08-12T03:51:39;12.82;;;10.38;;
22644;SDS011;11489;50.834;6.752;2023-08-12T03:54:05;17.80;;;11.45;;
22644;SDS011;11489;50.834;6.752;2023-08-12T03:56:31;16.75;;;12.13;;
22644;SDS011;11489;50.834;6.752;2023-08-12T03:58:56;16.55;;;12.27;;
22644;SDS011;11489;50.834;6.752;2023-08-12T04:01:22;17.15;;;12.23;;
22644;SDS011;11489;50.834;6.752;2023-08-12T04:03:48;16.73;;;12.35;;
22644;SDS011;11489;50.834;6.752;2023-08-12T04:06:13;16.33;;;12.55;;
22644;SDS011;11489;50.834;6.752;2023-08-12T04:08:39;17.45;;;13.38;;
22644;SDS011;11489;50.834;6.752;2023-08-12T04:11:05;18.25;;;13.18;;
22644;SDS011;11489;50.834;6.752;2023-08-12T04:13:30;17.25;;;12.95;;
22644;SDS011;11489;50.834;6.752;2023-08-12T04:15:56;16.38;;;12.73;;
22644;SDS011;11489;50.834;6.752;2023-08-12T04:18:22;18.48;;;13.00;;
22644;SDS011;11489;50.834;6.752;2023-08-12T04:20:51;17.92;;;12.88;;
22644;SDS011;11489;50.834;6.752;2023-08-12T04:23:17;18.52;;;12.70;;
22644;SDS011;11489;50.834;6.752;2023-08-12T04:25:46;15.73;;;12.18;;
22644;SDS011;11489;50.834;6.752;2023-08-12T04:28:13;17.50;;;12.95;;
22644;SDS011;11489;50.834;6.752;2023-08-12T04:30:43;16.35;;;12.43;;
22644;SDS011;11489;50.834;6.752;2023-08-12T04:33:10;18.23;;;13.82;;
22644;SDS011;11489;50.834;6.752;2023-08-12T04:35:35;18.08;;;13.02;;
22644;SDS011;11489;50.834;6.752;2023-08-12T04:38:01;16.95;;;12.93;;
22644;SDS011;11489;50.834;6.752;2023-08-12T04:40:28;16.52;;;12.02;;
22644;SDS011;11489;50.834;6.752;2023-08-12T04:42:53;18.70;;;13.88;;
22644;SDS011;11489;50.834;6.752;2023-08-12T04:45:19;16.95;;;12.60;;
22644;SDS011;11489;50.834;6.752;2023-08-12T04:47:45;18.77;;;12.73;;
22644;SDS011;11489;50.834;6.752;2023-08-12T04:50:13;18.00;;;13.38;;
22644;SDS011;11489;50.834;6.752;2023-08-12T04:52:39;19.88;;;13.77;;
22644;SDS011;11489;50.834;6.752;2023-08-12T04:55:05;21.63;;;12.90;;
22644;SDS011;11489;50.834;6.752;2023-08-12T04:57:30;20.35;;;13.07;;
22644;SDS011;11489;50.834;6.752;2023-08-12T04:59:56;18.63;;;12.80;;
22644;SDS011;11489;50.834;6.752;2023-08-12T05:02:22;16.80;;;12.68;;
22644;SDS011;11489;50.834;6.752;2023-08-12T05:04:48;17.15;;;12.23;;
22644;SDS011;11489;50.834;6.752;2023-08-12T05:07:15;15.25;;;12.55;;
22644;SDS011;11489;50.834;6.752;2023-08-12T05:09:41;15.05;;;11.88;;
22644;SDS011;11489;50.834;6.752;2023-08-12T05:12:09;13.07;;;10.82;;
22644;SDS011;11489;50.834;6.752;2023-08-12T05:14:35;15.07;;;12.10;;
22644;SDS011;11489;50.834;6.752;2023-08-12T05:17:01;15.15;;;10.98;;
22644;SDS011;11489;50.834;6.752;2023-08-12T05:19:27;11.70;;;10.23;;
22644;SDS011;11489;50.834;6.752;2023-08-12T05:21:53;12.85;;;10.07;;
22644;SDS011;11489;50.834;6.752;2023-08-12T05:24:18;11.25;;;9.60;;
22644;SDS011;11489;50.834;6.752;2023-08-12T05:26:44;12.07;;;9.90;;
22644;SDS011;11489;50.834;6.752;2023-08-12T05:29:10;11.50;;;9.20;;
22644;SDS011;11489;50.834;6.752;2023-08-12T05:31:36;11.80;;;9.50;;
22644;SDS011;11489;50.834;6.752;2023-08-12T05:34:02;10.80;;;9.07;;
22644;SDS011;11489;50.834;6.752;2023-08-12T05:36:28;11.15;;;9.48;;
22644;SDS011;11489;50.834;6.752;2023-08-12T05:38:54;11.57;;;9.15;;
22644;SDS011;11489;50.834;6.752;2023-08-12T05:41:20;9.80;;;8.15;;
22644;SDS011;11489;50.834;6.752;2023-08-12T05:43:47;9.73;;;7.65;;
22644;SDS011;11489;50.834;6.752;2023-08-12T05:46:13;8.80;;;7.25;;
22644;SDS011;11489;50.834;6.752;2023-08-12T05:48:39;8.82;;;7.10;;
22644;SDS011;11489;50.834;6.752;2023-08-12T05:51:05;7.32;;;6.53;;
22644;SDS011;11489;50.834;6.752;2023-08-12T05:53:31;7.15;;;6.30;;
22644;SDS011;11489;50.834;6.752;2023-08-12T05:55:58;8.05;;;5.57;;
22644;SDS011;11489;50.834;6.752;2023-08-12T05:58:24;6.22;;;5.38;;
22644;SDS011;11489;50.834;6.752;2023-08-12T06:00:50;8.20;;;4.60;;
22644;SDS011;11489;50.834;6.752;2023-08-12T06:03:15;5.90;;;3.90;;
22644;SDS011;11489;50.834;6.752;2023-08-12T06:05:43;4.88;;;3.78;;
22644;SDS011;11489;50.834;6.752;2023-08-12T06:08:10;3.88;;;3.28;;
22644;SDS011;11489;50.834;6.752;2023-08-12T06:10:36;4.03;;;3.53;;
22644;SDS011;11489;50.834;6.752;2023-08-12T06:13:02;4.30;;;3.30;;
22644;SDS011;11489;50.834;6.752;2023-08-12T06:15:28;3.97;;;3.13;;
22644;SDS011;11489;50.834;6.752;2023-08-12T06:17:53;4.40;;;2.95;;
22644;SDS011;11489;50.834;6.752;2023-08-12T06:20:19;3.20;;;2.90;;
22644;SDS011;11489;50.834;6.752;2023-08-12T06:22:45;3.60;;;2.78;;
22644;SDS011;11489;50.834;6.752;2023-08-12T06:25:11;3.20;;;2.90;;
22644;SDS011;11489;50.834;6.752;2023-08-12T06:27:38;3.10;;;2.80;;
22644;SDS011;11489;50.834;6.752;2023-08-12T06:30:19;2.95;;;2.65;;
22644;SDS011;11489;50.834;6.752;2023-08-12T06:32:55;3.42;;;2.90;;
22644;SDS011;11489;50.834;6.752;2023-08-12T06:35:21;3.65;;;2.90;;
22644;SDS011;11489;50.834;6.752;2023-08-12T06:37:50;3.88;;;3.10;;
22644;SDS011;11489;50.834;6.752;2023-08-12T06:40:30;3.33;;;2.75;;
22644;SDS011;11489;50.834;6.752;2023-08-12T06:43:26;3.92;;;3.00;;
22644;SDS011;11489;50.834;6.752;2023-08-12T06:46:33;3.47;;;2.63;;
22644;SDS011;11489;50.834;6.752;2023-08-12T06:49:02;4.15;;;2.72;;
22644;SDS011;11489;50.834;6.752;2023-08-12T06:51:39;4.10;;;2.72;;
22644;SDS011;11489;50.834;6.752;2023-08-12T06:57:01;3.75;;;2.75;;
22644;SDS011;11489;50.834;6.752;2023-08-12T06:59:33;2.75;;;2.30;;
22644;SDS011;11489;50.834;6.752;2023-08-12T07:05:02;3.03;;;2.30;;
22644;SDS011;11489;50.834;6.752;2023-08-12T07:07:35;3.42;;;2.20;;
22644;SDS011;11489;50.834;6.752;2023-08-12T07:10:09;6.93;;;2.40;;
22644;SDS011;11489;50.834;6.752;2023-08-12T07:12:45;3.67;;;2.38;;
22644;SDS011;11489;50.834;6.752;2023-08-12T07:15:19;4.43;;;2.20;;
22644;SDS011;11489;50.834;6.752;2023-08-12T07:17:45;3.70;;;2.22;;
22644;SDS011;11489;50.834;6.752;2023-08-12T07:20:13;3.88;;;2.22;;
22644;SDS011;11489;50.834;6.752;2023-08-12T07:22:42;1.98;;;1.80;;
22644;SDS011;11489;50.834;6.752;2023-08-12T07:25:08;2.67;;;2.03;;
22644;SDS011;11489;50.834;6.752;2023-08-12T07:27:37;3.75;;;1.80;;
22644;SDS011;11489;50.834;6.752;2023-08-12T07:30:02;4.60;;;2.20;;
22644;SDS011;11489;50.834;6.752;2023-08-12T07:32:28;3.17;;;2.15;;
22644;SDS011;11489;50.834;6.752;2023-08-12T07:34:54;3.35;;;1.98;;
22644;SDS011;11489;50.834;6.752;2023-08-12T07:37:20;2.20;;;2.00;;
22644;SDS011;11489;50.834;6.752;2023-08-12T07:39:45;3.15;;;1.90;;
22644;SDS011;11489;50.834;6.752;2023-08-12T07:42:11;3.05;;;1.90;;
22644;SDS011;11489;50.834;6.752;2023-08-12T07:44:37;2.95;;;2.00;;
22644;SDS011;11489;50.834;6.752;2023-08-12T07:47:02;2.30;;;1.95;;
22644;SDS011;11489;50.834;6.752;2023-08-12T07:49:28;2.83;;;2.00;;
22644;SDS011;11489;50.834;6.752;2023-08-12T07:51:54;2.65;;;2.05;;
22644;SDS011;11489;50.834;6.752;2023-08-12T07:54:20;2.42;;;1.98;;
22644;SDS011;11489;50.834;6.752;2023-08-12T07:56:46;2.92;;;2.22;;
22644;SDS011;11489;50.834;6.752;2023-08-12T07:59:11;2.25;;;1.85;;
22644;SDS011;11489;50.834;6.752;2023-08-12T08:01:37;3.40;;;1.83;;
22644;SDS011;11489;50.834;6.752;2023-08-12T08:04:03;2.78;;;1.70;;
22644;SDS011;11489;50.834;6.752;2023-08-12T08:06:29;2.88;;;1.95;;
22644;SDS011;11489;50.834;6.752;2023-08-12T08:08:54;2.35;;;1.98;;
22644;SDS011;11489;50.834;6.752;2023-08-12T08:11:20;2.45;;;1.65;;
22644;SDS011;11489;50.834;6.752;2023-08-12T08:13:46;2.47;;;1.90;;
22644;SDS011;11489;50.834;6.752;2023-08-12T08:16:12;1.98;;;1.70;;
22644;SDS011;11489;50.834;6.752;2023-08-12T08:18:38;1.75;;;1.42;;
22644;SDS011;11489;50.834;6.752;2023-08-12T08:21:03;2.45;;;1.67;;
22644;SDS011;11489;50.834;6.752;2023-08-12T08:23:29;2.28;;;1.58;;
22644;SDS011;11489;50.834;6.752;2023-08-12T08:25:55;3.15;;;1.65;;
22644;SDS011;11489;50.834;6.752;2023-08-12T08:28:21;2.58;;;1.90;;
22644;SDS011;11489;50.834;6.752;2023-08-12T08:30:46;5.20;;;1.83;;
22644;SDS011;11489;50.834;6.752;2023-08-12T08:33:12;2.00;;;1.50;;
22644;SDS011;11489;50.834;6.752;2023-08-12T08:35:37;2.20;;;1.60;;
22644;SDS011;11489;50.834;6.752;2023-08-12T08:38:03;1.90;;;1.50;;
22644;SDS011;11489;50.834;6.752;2023-08-12T08:40:29;1.95;;;1.75;;
22644;SDS011;11489;50.834;6.752;2023-08-12T08:42:55;1.88;;;1.55;;
22644;SDS011;11489;50.834;6.752;2023-08-12T08:45:28;2.55;;;1.65;;
22644;SDS011;11489;50.834;6.752;2023-08-12T08:47:59;3.38;;;1.65;;
22644;SDS011;11489;50.834;6.752;2023-08-12T08:50:27;1.45;;;1.30;;
22644;SDS011;11489;50.834;6.752;2023-08-12T08:52:54;2.72;;;1.40;;
22644;SDS011;11489;50.834;6.752;2023-08-12T08:55:22;2.28;;;1.75;;
22644;SDS011;11489;50.834;6.752;2023-08-12T08:57:48;1.90;;;1.50;;
22644;SDS011;11489;50.834;6.752;2023-08-12T09:00:18;3.20;;;1.58;;
22644;SDS011;11489;50.834;6.752;2023-08-12T09:02:48;1.90;;;1.52;;
22644;SDS011;11489;50.834;6.752;2023-08-12T09:05:15;1.48;;;1.27;;
22644;SDS011;11489;50.834;6.752;2023-08-12T09:07:42;2.58;;;1.65;;
22644;SDS011;11489;50.834;6.752;2023-08-12T09:10:10;2.17;;;1.58;;
22644;SDS011;11489;50.834;6.752;2023-08-12T09:12:36;1.92;;;1.45;;
22644;SDS011;11489;50.834;6.752;2023-08-12T09:15:03;2.55;;;1.40;;
22644;SDS011;11489;50.834;6.752;2023-08-12T09:17:29;1.30;;;1.20;;
22644;SDS011;11489;50.834;6.752;2023-08-12T09:19:57;1.50;;;1.30;;
22644;SDS011;11489;50.834;6.752;2023-08-12T09:22:24;2.28;;;1.25;;
22644;SDS011;11489;50.834;6.752;2023-08-12T09:24:51;1.40;;;1.10;;
22644;SDS011;11489;50.834;6.752;2023-08-12T09:27:21;1.40;;;1.20;;
22644;SDS011;11489;50.834;6.752;2023-08-12T09:29:47;1.83;;;1.15;;
22644;SDS011;11489;50.834;6.752;2023-08-12T09:32:13;1.10;;;1.00;;
22644;SDS011;11489;50.834;6.752;2023-08-12T09:34:51;1.90;;;1.13;;
22644;SDS011;11489;50.834;6.752;2023-08-12T09:37:18;1.17;;;1.00;;
22644;SDS011;11489;50.834;6.752;2023-08-12T09:39:46;1.73;;;0.90;;
22644;SDS011;11489;50.834;6.752;2023-08-12T09:42:12;1.65;;;1.00;;
22644;SDS011;11489;50.834;6.752;2023-08-12T09:44:38;1.15;;;0.90;;
22644;SDS011;11489;50.834;6.752;2023-08-12T09:47:05;0.85;;;0.82;;
22644;SDS011;11489;50.834;6.752;2023-08-12T09:49:33;1.05;;;0.90;;
22644;SDS011;11489;50.834;6.752;2023-08-12T09:52:00;1.10;;;1.00;;
22644;SDS011;11489;50.834;6.752;2023-08-12T09:54:31;1.05;;;0.88;;
22644;SDS011;11489;50.834;6.752;2023-08-12T09:56:59;1.50;;;1.00;;
22644;SDS011;11489;50.834;6.752;2023-08-12T09:59:30;1.58;;;0.95;;
22644;SDS011;11489;50.834;6.752;2023-08-12T10:02:00;1.25;;;1.00;;
22644;SDS011;11489;50.834;6.752;2023-08-12T10:04:41;1.00;;;0.90;;
22644;SDS011;11489;50.834;6.752;2023-08-12T10:07:10;4.30;;;1.48;;
22644;SDS011;11489;50.834;6.752;2023-08-12T10:09:39;1.45;;;1.10;;
22644;SDS011;11489;50.834;6.752;2023-08-12T10:12:07;1.10;;;1.00;;
22644;SDS011;11489;50.834;6.752;2023-08-12T10:14:34;2.92;;;1.20;;
22644;SDS011;11489;50.834;6.752;2023-08-12T10:17:00;0.93;;;0.90;;
22644;SDS011;11489;50.834;6.752;2023-08-12T10:19:26;1.40;;;0.90;;
22644;SDS011;11489;50.834;6.752;2023-08-12T10:21:54;1.27;;;1.00;;
22644;SDS011;11489;50.834;6.752;2023-08-12T10:24:25;1.17;;;1.08;;
22644;SDS011;11489;50.834;6.752;2023-08-12T10:26:52;1.38;;;0.93;;
22644;SDS011;11489;50.834;6.752;2023-08-12T10:29:19;1.02;;;0.98;;
22644;SDS011;11489;50.834;6.752;2023-08-12T10:31:46;1.17;;;1.08;;
22644;SDS011;11489;50.834;6.752;2023-08-12T10:34:20;1.33;;;1.00;;
22644;SDS011;11489;50.834;6.752;2023-08-12T10:36:56;1.75;;;1.20;;
22644;SDS011;11489;50.834;6.752;2023-08-12T10:39:26;1.77;;;0.90;;
22644;SDS011;11489;50.834;6.752;2023-08-12T10:41:54;1.85;;;1.10;;
22644;SDS011;11489;50.834;6.752;2023-08-12T10:44:21;1.10;;;1.00;;
22644;SDS011;11489;50.834;6.752;2023-08-12T10:46:50;1.48;;;1.20;;
22644;SDS011;11489;50.834;6.752;2023-08-12T10:49:16;1.15;;;1.08;;
22644;SDS011;11489;50.834;6.752;2023-08-12T10:51:49;1.20;;;1.10;;
22644;SDS011;11489;50.834;6.752;2023-08-12T10:54:17;1.85;;;1.25;;
22644;SDS011;11489;50.834;6.752;2023-08-12T11:02:28;1.20;;;1.10;;
22644;SDS011;11489;50.834;6.752;2023-08-12T11:07:47;1.48;;;1.23;;
22644;SDS011;11489;50.834;6.752;2023-08-12T11:10:21;1.25;;;1.15;;
22644;SDS011;11489;50.834;6.752;2023-08-12T11:15:32;1.20;;;1.10;;
22644;SDS011;11489;50.834;6.752;2023-08-12T11:18:02;1.65;;;1.10;;
22644;SDS011;11489;50.834;6.752;2023-08-12T11:20:32;0.70;;;0.70;;
22644;SDS011;11489;50.834;6.752;2023-08-12T11:22:58;0.95;;;0.93;;
22644;SDS011;11489;50.834;6.752;2023-08-12T11:25:25;1.67;;;0.90;;
22644;SDS011;11489;50.834;6.752;2023-08-12T11:27:52;0.88;;;0.88;;
22644;SDS011;11489;50.834;6.752;2023-08-12T11:30:19;0.70;;;0.70;;
22644;SDS011;11489;50.834;6.752;2023-08-12T11:32:46;1.90;;;0.95;;
22644;SDS011;11489;50.834;6.752;2023-08-12T11:35:14;1.45;;;0.70;;
22644;SDS011;11489;50.834;6.752;2023-08-12T11:37:41;0.77;;;0.77;;
22644;SDS011;11489;50.834;6.752;2023-08-12T11:40:10;0.80;;;0.80;;
22644;SDS011;11489;50.834;6.752;2023-08-12T11:42:37;1.88;;;0.82;;
22644;SDS011;11489;50.834;6.752;2023-08-12T11:45:04;0.80;;;0.70;;
22644;SDS011;11489;50.834;6.752;2023-08-12T11:47:32;0.65;;;0.65;;
22644;SDS011;11489;50.834;6.752;2023-08-12T11:50:01;0.80;;;0.80;;
22644;SDS011;11489;50.834;6.752;2023-08-12T11:52:31;0.70;;;0.70;;
22644;SDS011;11489;50.834;6.752;2023-08-12T11:54:57;0.88;;;0.73;;
22644;SDS011;11489;50.834;6.752;2023-08-12T11:57:23;0.80;;;0.80;;
22644;SDS011;11489;50.834;6.752;2023-08-12T11:59:50;0.90;;;0.80;;
22644;SDS011;11489;50.834;6.752;2023-08-12T12:02:15;0.70;;;0.70;;
22644;SDS011;11489;50.834;6.752;2023-08-12T12:04:41;0.93;;;0.80;;
22644;SDS011;11489;50.834;6.752;2023-08-12T12:07:19;0.90;;;0.73;;
22644;SDS011;11489;50.834;6.752;2023-08-12T12:09:53;0.50;;;0.50;;
22644;SDS011;11489;50.834;6.752;2023-08-12T12:12:22;0.70;;;0.70;;
22644;SDS011;11489;50.834;6.752;2023-08-12T12:14:52;0.85;;;0.80;;
22644;SDS011;11489;50.834;6.752;2023-08-12T12:17:23;0.85;;;0.80;;
22644;SDS011;11489;50.834;6.752;2023-08-12T12:19:56;0.98;;;0.80;;
22644;SDS011;11489;50.834;6.752;2023-08-12T12:22:27;0.70;;;0.70;;
22644;SDS011;11489;50.834;6.752;2023-08-12T12:24:54;0.50;;;0.50;;
22644;SDS011;11489;50.834;6.752;2023-08-12T12:27:22;1.73;;;0.70;;
22644;SDS011;11489;50.834;6.752;2023-08-12T12:29:49;0.90;;;0.60;;
22644;SDS011;11489;50.834;6.752;2023-08-12T12:32:17;2.55;;;0.80;;
22644;SDS011;11489;50.834;6.752;2023-08-12T12:34:44;0.68;;;0.68;;
22644;SDS011;11489;50.834;6.752;2023-08-12T12:37:10;0.75;;;0.75;;
22644;SDS011;11489;50.834;6.752;2023-08-12T12:39:35;0.65;;;0.65;;
22644;SDS011;11489;50.834;6.752;2023-08-12T12:42:01;2.10;;;0.75;;
22644;SDS011;11489;50.834;6.752;2023-08-12T12:44:27;0.80;;;0.80;;
22644;SDS011;11489;50.834;6.752;2023-08-12T12:46:53;0.70;;;0.70;;
22644;SDS011;11489;50.834;6.752;2023-08-12T12:49:19;0.60;;;0.60;;
22644;SDS011;11489;50.834;6.752;2023-08-12T12:51:45;0.52;;;0.50;;
22644;SDS011;11489;50.834;6.752;2023-08-12T12:54:11;0.80;;;0.52;;
22644;SDS011;11489;50.834;6.752;2023-08-12T12:56:36;0.70;;;0.50;;
22644;SDS011;11489;50.834;6.752;2023-08-12T12:59:02;0.65;;;0.47;;
22644;SDS011;11489;50.834;6.752;2023-08-12T13:01:28;0.47;;;0.47;;
22644;SDS011;11489;50.834;6.752;2023-08-12T13:03:53;0.30;;;0.30;;
22644;SDS011;11489;50.834;6.752;2023-08-12T13:06:19;0.73;;;0.30;;
22644;SDS011;11489;50.834;6.752;2023-08-12T13:08:45;0.22;;;0.22;;
22644;SDS011;11489;50.834;6.752;2023-08-12T13:11:10;0.35;;;0.30;;
22644;SDS011;11489;50.834;6.752;2023-08-12T13:13:36;0.20;;;0.20;;
22644;SDS011;11489;50.834;6.752;2023-08-12T13:16:01;0.20;;;0.20;;
22644;SDS011;11489;50.834;6.752;2023-08-12T13:18:27;0.20;;;0.20;;
22644;SDS011;11489;50.834;6.752;2023-08-12T13:20:53;0.50;;;0.30;;
22644;SDS011;11489;50.834;6.752;2023-08-12T13:23:18;0.47;;;0.47;;
22644;SDS011;11489;50.834;6.752;2023-08-12T13:25:44;0.38;;;0.35;;
22644;SDS011;11489;50.834;6.752;2023-08-12T13:28:10;0.28;;;0.28;;
22644;SDS011;11489;50.834;6.752;2023-08-12T13:30:36;0.32;;;0.32;;
22644;SDS011;11489;50.834;6.752;2023-08-12T13:33:02;0.55;;;0.40;;
22644;SDS011;11489;50.834;6.752;2023-08-12T13:35:28;0.30;;;0.30;;
22644;SDS011;11489;50.834;6.752;2023-08-12T13:37:54;3.03;;;0.38;;
22644;SDS011;11489;50.834;6.752;2023-08-12T13:40:19;0.57;;;0.40;;
22644;SDS011;11489;50.834;6.752;2023-08-12T13:42:45;0.35;;;0.35;;
22644;SDS011;11489;50.834;6.752;2023-08-12T13:45:12;0.40;;;0.40;;
22644;SDS011;11489;50.834;6.752;2023-08-12T13:47:38;0.30;;;0.30;;
22644;SDS011;11489;50.834;6.752;2023-08-12T13:50:04;0.65;;;0.40;;
22644;SDS011;11489;50.834;6.752;2023-08-12T13:52:30;0.30;;;0.30;;
22644;SDS011;11489;50.834;6.752;2023-08-12T13:54:56;0.25;;;0.22;;
22644;SDS011;11489;50.834;6.752;2023-08-12T13:57:21;0.63;;;0.40;;
22644;SDS011;11489;50.834;6.752;2023-08-12T13:59:47;0.30;;;0.30;;
22644;SDS011;11489;50.834;6.752;2023-08-12T14:02:13;0.60;;;0.43;;
22644;SDS011;11489;50.834;6.752;2023-08-12T14:04:39;0.40;;;0.40;;
22644;SDS011;11489;50.834;6.752;2023-08-12T14:07:05;0.30;;;0.30;;
22644;SDS011;11489;50.834;6.752;2023-08-12T14:09:31;0.43;;;0.40;;
22644;SDS011;11489;50.834;6.752;2023-08-12T14:11:57;0.35;;;0.30;;
22644;SDS011;11489;50.834;6.752;2023-08-12T14:14:24;0.32;;;0.32;;
22644;SDS011;11489;50.834;6.752;2023-08-12T14:16:52;0.30;;;0.30;;
22644;SDS011;11489;50.834;6.752;2023-08-12T14:19:19;0.40;;;0.32;;
22644;SDS011;11489;50.834;6.752;2023-08-12T14:21:44;0.30;;;0.30;;
22644;SDS011;11489;50.834;6.752;2023-08-12T14:24:10;0.40;;;0.30;;
22644;SDS011;11489;50.834;6.752;2023-08-12T14:26:36;1.90;;;0.30;;
22644;SDS011;11489;50.834;6.752;2023-08-12T14:29:02;0.40;;;0.40;;
22644;SDS011;11489;50.834;6.752;2023-08-12T14:31:28;0.80;;;0.60;;
22644;SDS011;11489;50.834;6.752;2023-08-12T14:33:54;1.38;;;0.50;;
22644;SDS011;11489;50.834;6.752;2023-08-12T14:36:19;0.57;;;0.57;;
22644;SDS011;11489;50.834;6.752;2023-08-12T14:38:45;0.60;;;0.50;;
22644;SDS011;11489;50.834;6.752;2023-08-12T14:41:10;0.50;;;0.45;;
22644;SDS011;11489;50.834;6.752;2023-08-12T14:43:36;0.88;;;0.68;;
22644;SDS011;11489;50.834;6.752;2023-08-12T14:46:02;0.40;;;0.40;;
22644;SDS011;11489;50.834;6.752;2023-08-12T14:48:27;0.70;;;0.60;;
22644;SDS011;11489;50.834;6.752;2023-08-12T14:50:54;1.00;;;0.50;;
22644;SDS011;11489;50.834;6.752;2023-08-12T14:53:20;0.57;;;0.50;;
22644;SDS011;11489;50.834;6.752;2023-08-12T14:55:46;2.00;;;1.30;;
22644;SDS011;11489;50.834;6.752;2023-08-12T14:58:11;0.90;;;0.80;;
22644;SDS011;11489;50.834;6.752;2023-08-12T15:00:37;1.20;;;0.60;;
22644;SDS011;11489;50.834;6.752;2023-08-12T15:03:03;1.38;;;0.60;;
22644;SDS011;11489;50.834;6.752;2023-08-12T15:05:29;0.70;;;0.50;;